createdAt,value
2022-09-03T00:09:56.814Z,13.16
2022-09-03T00:20:12.735Z,12.95
2022-09-03T00:30:19.183Z,12.85
2022-09-03T00:40:27.165Z,12.81
2022-09-03T00:51:03.751Z,12.72
2022-09-03T01:12:06.144Z,12.47
2022-09-03T01:22:24.486Z,12.46
2022-09-03T01:32:45.191Z,12.29
2022-09-03T01:42:54.485Z,12.18
2022-09-03T01:53:18.486Z,12.05
2022-09-03T02:03:23.041Z,12.00
2022-09-03T02:13:35.068Z,11.87
2022-09-03T02:23:40.871Z,11.79
2022-09-03T02:33:50.924Z,11.67
2022-09-03T02:44:06.685Z,11.56
2022-09-03T02:54:09.503Z,11.55
2022-09-03T03:04:11.086Z,11.44
2022-09-03T03:14:12.668Z,11.38
2022-09-03T03:24:14.525Z,11.40
2022-09-03T03:34:16.375Z,11.26
2022-09-03T03:44:20.259Z,11.20
2022-09-03T03:54:22.542Z,11.10
2022-09-03T04:04:24.285Z,11.05
2022-09-03T04:14:27.882Z,11.04
2022-09-03T04:24:29.828Z,11.24
2022-09-03T04:34:31.646Z,11.26
2022-09-03T04:44:33.316Z,11.34
2022-09-03T04:54:36.212Z,11.54
2022-09-03T05:04:37.842Z,11.79
2022-09-03T05:14:39.718Z,12.05
2022-09-03T05:24:41.394Z,12.37
2022-09-03T05:34:44.077Z,12.75
2022-09-03T05:44:46.048Z,13.22
2022-09-03T05:54:49.563Z,13.63
2022-09-03T06:04:51.272Z,13.96
2022-09-03T06:14:53.154Z,14.36
2022-09-03T06:24:55.877Z,14.87
2022-09-03T06:34:58.858Z,15.43
2022-09-03T06:45:07.011Z,16.03
2022-09-03T06:55:22.824Z,16.54
2022-09-03T07:05:28.739Z,16.93
2022-09-03T07:15:30.589Z,17.35
2022-09-03T07:25:33.203Z,17.84
2022-09-03T07:35:37.313Z,18.47
2022-09-03T07:45:39.280Z,18.83
2022-09-03T07:55:45.147Z,19.20
2022-09-03T08:05:53.955Z,19.60
2022-09-03T08:15:57.312Z,19.87
2022-09-03T08:26:02.175Z,20.40
2022-09-03T08:36:09.711Z,20.74
2022-09-03T08:46:12.402Z,20.79
2022-09-03T08:56:24.362Z,21.45
2022-09-03T09:06:53.576Z,22.47
2022-09-03T09:17:13.979Z,23.27
2022-09-03T09:27:19.469Z,24.04
2022-09-03T09:37:22.183Z,23.95
2022-09-03T09:47:36.698Z,24.27
2022-09-03T09:57:39.802Z,24.98
2022-09-03T10:07:55.742Z,25.49
2022-09-03T10:18:09.420Z,25.29
2022-09-03T10:28:13.306Z,26.30
2022-09-03T10:38:30.146Z,26.94
2022-09-03T10:49:03.187Z,27.72
2022-09-03T10:59:28.997Z,28.46
2022-09-03T11:09:41.984Z,30.47
2022-09-03T11:19:51.057Z,30.45
2022-09-03T11:30:07.343Z,32.11
2022-09-03T11:40:21.928Z,31.42
2022-09-03T11:50:32.744Z,30.12
2022-09-03T12:00:38.700Z,35.69
2022-09-03T12:10:51.383Z,34.49
2022-09-03T12:20:53.037Z,37.10
2022-09-03T12:30:54.886Z,37.03
2022-09-03T13:01:47.953Z,36.10
2022-09-03T13:11:52.567Z,37.28
2022-09-03T13:22:17.401Z,36.24
2022-09-03T13:32:45.217Z,37.01
2022-09-03T13:42:58.802Z,38.18
2022-09-03T13:53:07.431Z,36.95
2022-09-03T14:03:49.424Z,36.46
2022-09-03T14:14:18.377Z,32.15
2022-09-03T14:24:26.745Z,35.32
2022-09-03T14:34:53.222Z,32.57
2022-09-03T14:45:09.123Z,38.47
2022-09-03T14:55:31.458Z,35.31
2022-09-03T15:05:44.698Z,34.45
2022-09-03T15:16:09.169Z,32.97
2022-09-03T15:26:31.123Z,35.17
2022-09-03T15:36:41.461Z,36.10
2022-09-03T15:47:09.536Z,33.29
2022-09-03T15:57:28.979Z,34.67
2022-09-03T16:07:49.157Z,29.67
2022-09-03T16:18:07.305Z,27.38
2022-09-03T16:28:35.769Z,26.38
2022-09-03T16:38:55.533Z,24.94
2022-09-03T16:49:16.936Z,23.24
2022-09-03T16:59:42.462Z,22.58
2022-09-03T17:10:08.158Z,22.11
2022-09-03T17:20:31.742Z,21.71
2022-09-03T17:30:58.772Z,21.31
2022-09-03T17:41:20.747Z,20.98
2022-09-03T17:51:22.396Z,20.48
2022-09-03T18:01:31.352Z,20.20
2022-09-03T18:11:46.949Z,19.85
2022-09-03T18:22:08.631Z,19.63
2022-09-03T18:32:29.853Z,19.30
2022-09-03T18:43:10.343Z,19.33
2022-09-03T18:53:50.086Z,19.17
2022-09-03T19:04:40.529Z,18.90
2022-09-03T19:15:11.012Z,18.81
2022-09-03T19:25:34.429Z,18.85
2022-09-03T19:36:10.922Z,18.58
2022-09-03T19:57:41.486Z,18.00
2022-09-03T20:08:11.837Z,17.76
2022-09-03T20:18:35.922Z,17.44
2022-09-03T20:28:57.021Z,17.34
2022-09-03T20:39:29.888Z,17.13
2022-09-03T20:49:38.263Z,17.30
2022-09-03T20:59:59.506Z,17.26
2022-09-03T21:10:28.309Z,16.90
2022-09-03T21:20:51.597Z,16.66
2022-09-03T21:31:12.666Z,16.39
2022-09-03T21:41:26.310Z,16.21
2022-09-03T21:51:31.644Z,16.04
2022-09-03T22:01:49.743Z,15.96
2022-09-03T22:11:56.303Z,15.97
2022-09-03T22:21:59.975Z,15.95
2022-09-03T22:32:08.024Z,15.89
2022-09-03T22:42:22.973Z,15.78
2022-09-03T22:52:45.484Z,15.66
2022-09-03T23:02:55.192Z,15.57
2022-09-03T23:13:21.095Z,15.45
2022-09-03T23:23:31.437Z,15.30
2022-09-03T23:33:33.124Z,15.13
2022-09-03T23:44:03.206Z,15.05
2022-09-03T23:54:24.955Z,15.03
